sensor_id;sensor_type;location;lat;lon;timestamp;P1;durP1;ratioP1;P2;durP2;ratioP2
25503;SDS011;13410;52.114;5.718;2024-02-26T00:01:26;8.52;;;7.00;;
25503;SDS011;13410;52.114;5.718;2024-02-26T00:03:52;8.45;;;6.85;;
25503;SDS011;13410;52.114;5.718;2024-02-26T00:06:19;13.63;;;7.25;;
25503;SDS011;13410;52.114;5.718;2024-02-26T00:08:44;8.15;;;6.20;;
25503;SDS011;13410;52.114;5.718;2024-02-26T00:11:11;9.85;;;6.90;;
25503;SDS011;13410;52.114;5.718;2024-02-26T00:13:37;9.23;;;6.60;;
25503;SDS011;13410;52.114;5.718;2024-02-26T00:16:03;11.95;;;7.25;;
25503;SDS011;13410;52.114;5.718;2024-02-26T00:18:29;8.80;;;7.32;;
25503;SDS011;13410;52.114;5.718;2024-02-26T00:20:55;10.35;;;7.13;;
25503;SDS011;13410;52.114;5.718;2024-02-26T00:23:20;10.57;;;7.80;;
25503;SDS011;13410;52.114;5.718;2024-02-26T00:25:46;9.32;;;7.45;;
25503;SDS011;13410;52.114;5.718;2024-02-26T00:28:13;8.82;;;7.00;;
25503;SDS011;13410;52.114;5.718;2024-02-26T00:30:38;10.13;;;6.97;;
25503;SDS011;13410;52.114;5.718;2024-02-26T00:33:05;11.75;;;7.50;;
25503;SDS011;13410;52.114;5.718;2024-02-26T00:35:31;11.60;;;7.63;;
25503;SDS011;13410;52.114;5.718;2024-02-26T00:37:56;10.07;;;7.65;;
25503;SDS011;13410;52.114;5.718;2024-02-26T00:40:23;11.18;;;7.85;;
25503;SDS011;13410;52.114;5.718;2024-02-26T00:42:49;11.35;;;8.13;;
25503;SDS011;13410;52.114;5.718;2024-02-26T00:45:15;9.57;;;7.85;;
25503;SDS011;13410;52.114;5.718;2024-02-26T00:47:41;10.70;;;7.70;;
25503;SDS011;13410;52.114;5.718;2024-02-26T00:50:07;9.95;;;7.82;;
25503;SDS011;13410;52.114;5.718;2024-02-26T00:52:34;13.27;;;8.68;;
25503;SDS011;13410;52.114;5.718;2024-02-26T00:54:59;11.90;;;8.73;;
25503;SDS011;13410;52.114;5.718;2024-02-26T00:57:25;13.70;;;8.82;;
25503;SDS011;13410;52.114;5.718;2024-02-26T00:59:51;11.65;;;8.80;;
25503;SDS011;13410;52.114;5.718;2024-02-26T01:02:18;11.82;;;9.23;;
25503;SDS011;13410;52.114;5.718;2024-02-26T01:04:43;14.65;;;9.52;;
25503;SDS011;13410;52.114;5.718;2024-02-26T01:07:09;12.10;;;9.00;;
25503;SDS011;13410;52.114;5.718;2024-02-26T01:09:35;12.00;;;9.40;;
25503;SDS011;13410;52.114;5.718;2024-02-26T01:12:00;14.45;;;9.88;;
25503;SDS011;13410;52.114;5.718;2024-02-26T01:14:27;14.65;;;9.82;;
25503;SDS011;13410;52.114;5.718;2024-02-26T01:16:53;12.57;;;9.93;;
25503;SDS011;13410;52.114;5.718;2024-02-26T01:19:18;13.02;;;9.73;;
25503;SDS011;13410;52.114;5.718;2024-02-26T01:21:44;13.57;;;9.90;;
25503;SDS011;13410;52.114;5.718;2024-02-26T01:24:10;16.75;;;10.25;;
25503;SDS011;13410;52.114;5.718;2024-02-26T01:26:35;13.55;;;9.75;;
25503;SDS011;13410;52.114;5.718;2024-02-26T01:29:03;13.27;;;10.32;;
25503;SDS011;13410;52.114;5.718;2024-02-26T01:31:28;13.73;;;10.25;;
25503;SDS011;13410;52.114;5.718;2024-02-26T01:33:54;17.15;;;10.80;;
25503;SDS011;13410;52.114;5.718;2024-02-26T01:36:19;15.05;;;10.65;;
25503;SDS011;13410;52.114;5.718;2024-02-26T01:38:46;14.48;;;11.15;;
25503;SDS011;13410;52.114;5.718;2024-02-26T01:41:13;15.57;;;11.25;;
25503;SDS011;13410;52.114;5.718;2024-02-26T01:43:39;13.88;;;10.13;;
25503;SDS011;13410;52.114;5.718;2024-02-26T01:46:05;16.55;;;10.75;;
25503;SDS011;13410;52.114;5.718;2024-02-26T01:48:31;15.18;;;11.15;;
25503;SDS011;13410;52.114;5.718;2024-02-26T01:50:56;15.65;;;10.95;;
25503;SDS011;13410;52.114;5.718;2024-02-26T01:53:23;14.13;;;10.32;;
25503;SDS011;13410;52.114;5.718;2024-02-26T01:55:49;14.02;;;9.93;;
25503;SDS011;13410;52.114;5.718;2024-02-26T01:58:15;14.50;;;10.80;;
25503;SDS011;13410;52.114;5.718;2024-02-26T02:00:41;13.88;;;10.10;;
25503;SDS011;13410;52.114;5.718;2024-02-26T02:03:07;13.68;;;10.05;;
25503;SDS011;13410;52.114;5.718;2024-02-26T02:05:33;13.50;;;10.02;;
25503;SDS011;13410;52.114;5.718;2024-02-26T02:07:59;13.48;;;10.38;;
25503;SDS011;13410;52.114;5.718;2024-02-26T02:10:26;12.82;;;10.05;;
25503;SDS011;13410;52.114;5.718;2024-02-26T02:12:52;14.02;;;9.80;;
25503;SDS011;13410;52.114;5.718;2024-02-26T02:15:18;12.93;;;9.68;;
25503;SDS011;13410;52.114;5.718;2024-02-26T02:17:44;14.40;;;10.02;;
25503;SDS011;13410;52.114;5.718;2024-02-26T02:20:14;14.90;;;9.75;;
25503;SDS011;13410;52.114;5.718;2024-02-26T02:22:41;13.55;;;9.77;;
25503;SDS011;13410;52.114;5.718;2024-02-26T02:25:07;13.45;;;9.80;;
25503;SDS011;13410;52.114;5.718;2024-02-26T02:27:33;14.13;;;9.80;;
25503;SDS011;13410;52.114;5.718;2024-02-26T02:29:59;13.20;;;9.70;;
25503;SDS011;13410;52.114;5.718;2024-02-26T02:32:25;11.25;;;9.18;;
25503;SDS011;13410;52.114;5.718;2024-02-26T02:34:51;12.57;;;9.27;;
25503;SDS011;13410;52.114;5.718;2024-02-26T02:37:17;13.70;;;9.43;;
25503;SDS011;13410;52.114;5.718;2024-02-26T02:39:43;14.05;;;10.02;;
25503;SDS011;13410;52.114;5.718;2024-02-26T02:42:09;13.35;;;9.18;;
25503;SDS011;13410;52.114;5.718;2024-02-26T02:44:35;14.63;;;9.65;;
25503;SDS011;13410;52.114;5.718;2024-02-26T02:47:02;13.55;;;9.95;;
25503;SDS011;13410;52.114;5.718;2024-02-26T02:49:28;13.45;;;9.77;;
25503;SDS011;13410;52.114;5.718;2024-02-26T02:51:54;14.52;;;9.88;;
25503;SDS011;13410;52.114;5.718;2024-02-26T02:54:20;14.70;;;9.65;;
25503;SDS011;13410;52.114;5.718;2024-02-26T02:56:45;13.32;;;9.73;;
25503;SDS011;13410;52.114;5.718;2024-02-26T02:59:11;12.95;;;10.15;;
25503;SDS011;13410;52.114;5.718;2024-02-26T03:01:36;13.30;;;9.60;;
25503;SDS011;13410;52.114;5.718;2024-02-26T03:04:02;14.85;;;10.13;;
25503;SDS011;13410;52.114;5.718;2024-02-26T03:06:28;15.45;;;10.25;;
25503;SDS011;13410;52.114;5.718;2024-02-26T03:08:54;12.77;;;9.13;;
25503;SDS011;13410;52.114;5.718;2024-02-26T03:11:19;14.05;;;9.52;;
25503;SDS011;13410;52.114;5.718;2024-02-26T03:13:45;15.55;;;10.45;;
25503;SDS011;13410;52.114;5.718;2024-02-26T03:16:11;16.30;;;10.00;;
25503;SDS011;13410;52.114;5.718;2024-02-26T03:18:40;15.27;;;9.93;;
25503;SDS011;13410;52.114;5.718;2024-02-26T03:21:06;14.80;;;10.48;;
25503;SDS011;13410;52.114;5.718;2024-02-26T03:23:32;13.93;;;9.95;;
25503;SDS011;13410;52.114;5.718;2024-02-26T03:26:02;13.55;;;9.80;;
25503;SDS011;13410;52.114;5.718;2024-02-26T03:28:28;15.50;;;10.18;;
25503;SDS011;13410;52.114;5.718;2024-02-26T03:30:54;15.57;;;10.45;;
25503;SDS011;13410;52.114;5.718;2024-02-26T03:33:20;13.85;;;9.90;;
25503;SDS011;13410;52.114;5.718;2024-02-26T03:35:45;14.90;;;10.13;;
25503;SDS011;13410;52.114;5.718;2024-02-26T03:38:11;15.10;;;9.95;;
25503;SDS011;13410;52.114;5.718;2024-02-26T03:40:36;15.95;;;10.27;;
25503;SDS011;13410;52.114;5.718;2024-02-26T03:43:02;15.07;;;10.40;;
25503;SDS011;13410;52.114;5.718;2024-02-26T03:45:29;15.68;;;10.70;;
25503;SDS011;13410;52.114;5.718;2024-02-26T03:47:55;15.90;;;11.02;;
25503;SDS011;13410;52.114;5.718;2024-02-26T03:50:20;14.93;;;10.13;;
25503;SDS011;13410;52.114;5.718;2024-02-26T03:52:46;16.27;;;10.43;;
25503;SDS011;13410;52.114;5.718;2024-02-26T03:55:11;14.65;;;10.52;;
25503;SDS011;13410;52.114;5.718;2024-02-26T03:57:37;17.00;;;11.65;;
25503;SDS011;13410;52.114;5.718;2024-02-26T04:00:03;16.13;;;10.73;;
25503;SDS011;13410;52.114;5.718;2024-02-26T04:02:30;14.05;;;9.35;;
25503;SDS011;13410;52.114;5.718;2024-02-26T04:04:55;14.93;;;10.50;;
25503;SDS011;13410;52.114;5.718;2024-02-26T04:07:22;15.68;;;10.48;;
25503;SDS011;13410;52.114;5.718;2024-02-26T04:09:48;16.98;;;11.32;;
25503;SDS011;13410;52.114;5.718;2024-02-26T04:12:13;14.95;;;10.50;;
25503;SDS011;13410;52.114;5.718;2024-02-26T04:14:39;15.82;;;11.32;;
25503;SDS011;13410;52.114;5.718;2024-02-26T04:17:05;15.25;;;10.85;;
25503;SDS011;13410;52.114;5.718;2024-02-26T04:19:30;16.75;;;10.98;;
25503;SDS011;13410;52.114;5.718;2024-02-26T04:21:56;17.40;;;10.63;;
25503;SDS011;13410;52.114;5.718;2024-02-26T04:24:21;15.40;;;10.27;;
25503;SDS011;13410;52.114;5.718;2024-02-26T04:26:47;15.52;;;10.45;;
25503;SDS011;13410;52.114;5.718;2024-02-26T04:29:14;17.35;;;10.85;;
25503;SDS011;13410;52.114;5.718;2024-02-26T04:31:40;15.38;;;10.15;;
25503;SDS011;13410;52.114;5.718;2024-02-26T04:34:07;15.88;;;10.13;;
25503;SDS011;13410;52.114;5.718;2024-02-26T04:36:33;14.55;;;10.60;;
25503;SDS011;13410;52.114;5.718;2024-02-26T04:38:58;15.48;;;10.25;;
25503;SDS011;13410;52.114;5.718;2024-02-26T04:41:25;14.65;;;10.45;;
25503;SDS011;13410;52.114;5.718;2024-02-26T04:43:51;14.48;;;10.15;;
25503;SDS011;13410;52.114;5.718;2024-02-26T04:46:17;15.65;;;10.55;;
25503;SDS011;13410;52.114;5.718;2024-02-26T04:48:44;15.85;;;10.30;;
25503;SDS011;13410;52.114;5.718;2024-02-26T04:51:13;14.60;;;9.95;;
25503;SDS011;13410;52.114;5.718;2024-02-26T04:53:38;14.65;;;10.10;;
25503;SDS011;13410;52.114;5.718;2024-02-26T04:56:04;13.80;;;9.20;;
25503;SDS011;13410;52.114;5.718;2024-02-26T04:58:30;14.35;;;9.82;;
25503;SDS011;13410;52.114;5.718;2024-02-26T05:00:55;16.10;;;9.57;;
25503;SDS011;13410;52.114;5.718;2024-02-26T05:03:21;15.25;;;9.15;;
25503;SDS011;13410;52.114;5.718;2024-02-26T05:05:47;14.13;;;9.45;;
25503;SDS011;13410;52.114;5.718;2024-02-26T05:08:12;14.55;;;9.23;;
25503;SDS011;13410;52.114;5.718;2024-02-26T05:10:38;13.65;;;9.35;;
25503;SDS011;13410;52.114;5.718;2024-02-26T05:13:09;11.93;;;9.05;;
25503;SDS011;13410;52.114;5.718;2024-02-26T05:15:35;14.13;;;9.75;;
25503;SDS011;13410;52.114;5.718;2024-02-26T05:18:01;13.23;;;8.52;;
25503;SDS011;13410;52.114;5.718;2024-02-26T05:20:27;12.88;;;9.15;;
25503;SDS011;13410;52.114;5.718;2024-02-26T05:22:53;12.45;;;9.10;;
25503;SDS011;13410;52.114;5.718;2024-02-26T05:25:19;13.00;;;9.35;;
25503;SDS011;13410;52.114;5.718;2024-02-26T05:27:44;14.40;;;9.93;;
25503;SDS011;13410;52.114;5.718;2024-02-26T05:30:10;12.80;;;9.43;;
25503;SDS011;13410;52.114;5.718;2024-02-26T05:32:36;16.13;;;10.52;;
25503;SDS011;13410;52.114;5.718;2024-02-26T05:35:02;15.27;;;10.00;;
25503;SDS011;13410;52.114;5.718;2024-02-26T05:37:28;16.40;;;10.80;;
25503;SDS011;13410;52.114;5.718;2024-02-26T05:39:54;17.40;;;10.75;;
25503;SDS011;13410;52.114;5.718;2024-02-26T05:42:20;15.75;;;11.45;;
25503;SDS011;13410;52.114;5.718;2024-02-26T05:44:46;15.43;;;11.10;;
25503;SDS011;13410;52.114;5.718;2024-02-26T05:47:12;17.70;;;11.60;;
25503;SDS011;13410;52.114;5.718;2024-02-26T05:49:38;16.67;;;11.82;;
25503;SDS011;13410;52.114;5.718;2024-02-26T05:52:04;17.52;;;12.23;;
25503;SDS011;13410;52.114;5.718;2024-02-26T05:54:30;18.05;;;12.43;;
25503;SDS011;13410;52.114;5.718;2024-02-26T05:56:57;18.23;;;12.52;;
25503;SDS011;13410;52.114;5.718;2024-02-26T05:59:22;18.27;;;11.70;;
25503;SDS011;13410;52.114;5.718;2024-02-26T06:01:48;19.02;;;12.13;;
25503;SDS011;13410;52.114;5.718;2024-02-26T06:04:14;16.20;;;11.88;;
25503;SDS011;13410;52.114;5.718;2024-02-26T06:06:40;22.83;;;12.48;;
25503;SDS011;13410;52.114;5.718;2024-02-26T06:09:05;19.45;;;13.00;;
25503;SDS011;13410;52.114;5.718;2024-02-26T06:11:31;21.38;;;13.93;;
25503;SDS011;13410;52.114;5.718;2024-02-26T06:13:57;21.23;;;13.30;;
25503;SDS011;13410;52.114;5.718;2024-02-26T06:16:22;19.65;;;12.95;;
25503;SDS011;13410;52.114;5.718;2024-02-26T06:18:48;20.90;;;13.35;;
25503;SDS011;13410;52.114;5.718;2024-02-26T06:21:13;20.73;;;12.57;;
25503;SDS011;13410;52.114;5.718;2024-02-26T06:23:39;20.80;;;13.00;;
25503;SDS011;13410;52.114;5.718;2024-02-26T06:26:05;19.58;;;12.73;;
25503;SDS011;13410;52.114;5.718;2024-02-26T06:28:31;19.90;;;12.40;;
25503;SDS011;13410;52.114;5.718;2024-02-26T06:30:58;22.30;;;12.85;;
25503;SDS011;13410;52.114;5.718;2024-02-26T06:33:24;22.50;;;12.77;;
25503;SDS011;13410;52.114;5.718;2024-02-26T06:35:50;21.23;;;13.10;;
25503;SDS011;13410;52.114;5.718;2024-02-26T06:38:16;24.13;;;13.77;;
25503;SDS011;13410;52.114;5.718;2024-02-26T06:40:42;24.52;;;14.25;;
25503;SDS011;13410;52.114;5.718;2024-02-26T06:43:09;23.48;;;13.77;;
25503;SDS011;13410;52.114;5.718;2024-02-26T06:45:35;25.15;;;14.20;;
25503;SDS011;13410;52.114;5.718;2024-02-26T06:48:01;26.85;;;14.68;;
25503;SDS011;13410;52.114;5.718;2024-02-26T06:50:28;29.73;;;15.15;;
25503;SDS011;13410;52.114;5.718;2024-02-26T06:52:54;28.13;;;15.20;;
25503;SDS011;13410;52.114;5.718;2024-02-26T06:55:19;28.23;;;15.07;;
25503;SDS011;13410;52.114;5.718;2024-02-26T06:57:45;22.63;;;12.90;;
25503;SDS011;13410;52.114;5.718;2024-02-26T07:00:11;26.17;;;14.52;;
25503;SDS011;13410;52.114;5.718;2024-02-26T07:02:39;29.40;;;16.15;;
25503;SDS011;13410;52.114;5.718;2024-02-26T07:05:05;25.63;;;14.95;;
25503;SDS011;13410;52.114;5.718;2024-02-26T07:07:31;26.40;;;14.10;;
25503;SDS011;13410;52.114;5.718;2024-02-26T07:09:57;24.10;;;13.02;;
25503;SDS011;13410;52.114;5.718;2024-02-26T07:12:23;27.48;;;15.23;;
25503;SDS011;13410;52.114;5.718;2024-02-26T07:14:49;24.77;;;14.65;;
25503;SDS011;13410;52.114;5.718;2024-02-26T07:17:15;25.63;;;13.25;;
25503;SDS011;13410;52.114;5.718;2024-02-26T07:19:41;28.13;;;15.52;;
25503;SDS011;13410;52.114;5.718;2024-02-26T07:22:07;29.40;;;15.90;;
25503;SDS011;13410;52.114;5.718;2024-02-26T07:24:33;26.60;;;13.40;;
25503;SDS011;13410;52.114;5.718;2024-02-26T07:26:58;28.88;;;14.93;;
25503;SDS011;13410;52.114;5.718;2024-02-26T07:29:24;32.38;;;17.08;;
25503;SDS011;13410;52.114;5.718;2024-02-26T07:31:49;26.10;;;12.02;;
25503;SDS011;13410;52.114;5.718;2024-02-26T07:34:15;36.08;;;18.75;;
25503;SDS011;13410;52.114;5.718;2024-02-26T07:36:42;37.05;;;18.33;;
25503;SDS011;13410;52.114;5.718;2024-02-26T07:39:08;36.78;;;19.48;;
25503;SDS011;13410;52.114;5.718;2024-02-26T07:41:33;36.28;;;18.73;;
25503;SDS011;13410;52.114;5.718;2024-02-26T07:44:00;39.15;;;19.67;;
25503;SDS011;13410;52.114;5.718;2024-02-26T07:46:25;40.83;;;20.08;;
25503;SDS011;13410;52.114;5.718;2024-02-26T07:48:51;35.25;;;15.75;;
25503;SDS011;13410;52.114;5.718;2024-02-26T07:51:17;37.92;;;17.88;;
25503;SDS011;13410;52.114;5.718;2024-02-26T07:53:42;37.35;;;17.88;;
25503;SDS011;13410;52.114;5.718;2024-02-26T07:56:08;44.70;;;21.02;;
25503;SDS011;13410;52.114;5.718;2024-02-26T07:58:34;43.97;;;21.77;;
25503;SDS011;13410;52.114;5.718;2024-02-26T08:01:00;43.40;;;21.15;;
25503;SDS011;13410;52.114;5.718;2024-02-26T08:03:25;45.15;;;20.95;;
25503;SDS011;13410;52.114;5.718;2024-02-26T08:05:51;39.78;;;18.23;;
25503;SDS011;13410;52.114;5.718;2024-02-26T08:08:19;46.78;;;20.42;;
25503;SDS011;13410;52.114;5.718;2024-02-26T08:10:44;42.83;;;19.40;;
25503;SDS011;13410;52.114;5.718;2024-02-26T08:13:10;46.88;;;21.73;;
25503;SDS011;13410;52.114;5.718;2024-02-26T08:15:35;41.58;;;20.33;;
25503;SDS011;13410;52.114;5.718;2024-02-26T08:18:04;44.55;;;21.33;;
25503;SDS011;13410;52.114;5.718;2024-02-26T08:20:30;42.17;;;19.10;;
25503;SDS011;13410;52.114;5.718;2024-02-26T08:22:57;44.45;;;19.48;;
25503;SDS011;13410;52.114;5.718;2024-02-26T08:25:23;41.95;;;20.00;;
25503;SDS011;13410;52.114;5.718;2024-02-26T08:27:49;30.75;;;14.52;;
25503;SDS011;13410;52.114;5.718;2024-02-26T08:30:15;37.72;;;17.48;;
25503;SDS011;13410;52.114;5.718;2024-02-26T08:32:48;42.38;;;19.42;;
25503;SDS011;13410;52.114;5.718;2024-02-26T08:35:13;38.83;;;18.83;;
25503;SDS011;13410;52.114;5.718;2024-02-26T08:37:39;34.17;;;15.77;;
25503;SDS011;13410;52.114;5.718;2024-02-26T08:40:06;36.38;;;16.92;;
25503;SDS011;13410;52.114;5.718;2024-02-26T08:42:32;32.60;;;16.15;;
25503;SDS011;13410;52.114;5.718;2024-02-26T08:44:58;33.88;;;16.00;;
25503;SDS011;13410;52.114;5.718;2024-02-26T08:47:27;31.60;;;16.58;;
25503;SDS011;13410;52.114;5.718;2024-02-26T08:49:53;32.03;;;17.17;;
25503;SDS011;13410;52.114;5.718;2024-02-26T08:52:18;30.98;;;15.38;;
25503;SDS011;13410;52.114;5.718;2024-02-26T08:54:44;29.00;;;14.88;;
25503;SDS011;13410;52.114;5.718;2024-02-26T08:57:10;27.90;;;14.50;;
25503;SDS011;13410;52.114;5.718;2024-02-26T08:59:35;29.13;;;15.70;;
25503;SDS011;13410;52.114;5.718;2024-02-26T09:02:01;29.40;;;15.25;;
25503;SDS011;13410;52.114;5.718;2024-02-26T09:04:26;29.00;;;15.07;;
25503;SDS011;13410;52.114;5.718;2024-02-26T09:06:52;25.52;;;12.55;;
25503;SDS011;13410;52.114;5.718;2024-02-26T09:09:18;26.92;;;14.68;;
25503;SDS011;13410;52.114;5.718;2024-02-26T09:11:45;27.90;;;15.40;;
25503;SDS011;13410;52.114;5.718;2024-02-26T09:14:10;23.23;;;12.63;;
25503;SDS011;13410;52.114;5.718;2024-02-26T09:16:37;29.17;;;15.00;;
25503;SDS011;13410;52.114;5.718;2024-02-26T09:19:02;24.55;;;14.20;;
25503;SDS011;13410;52.114;5.718;2024-02-26T09:21:28;25.17;;;13.65;;
25503;SDS011;13410;52.114;5.718;2024-02-26T09:23:53;24.80;;;13.68;;
25503;SDS011;13410;52.114;5.718;2024-02-26T09:26:19;25.25;;;13.98;;
25503;SDS011;13410;52.114;5.718;2024-02-26T09:28:45;24.45;;;13.77;;
25503;SDS011;13410;52.114;5.718;2024-02-26T09:31:10;26.25;;;13.60;;
25503;SDS011;13410;52.114;5.718;2024-02-26T09:33:37;24.92;;;14.13;;
25503;SDS011;13410;52.114;5.718;2024-02-26T09:36:04;21.92;;;12.68;;
25503;SDS011;13410;52.114;5.718;2024-02-26T09:38:31;23.45;;;12.80;;
25503;SDS011;13410;52.114;5.718;2024-02-26T09:41:01;22.02;;;12.20;;
25503;SDS011;13410;52.114;5.718;2024-02-26T09:43:27;25.65;;;12.48;;
25503;SDS011;13410;52.114;5.718;2024-02-26T09:46:04;23.65;;;12.95;;
25503;SDS011;13410;52.114;5.718;2024-02-26T09:48:31;22.48;;;12.93;;
25503;SDS011;13410;52.114;5.718;2024-02-26T09:50:59;23.60;;;12.65;;
25503;SDS011;13410;52.114;5.718;2024-02-26T09:53:26;19.75;;;11.65;;
25503;SDS011;13410;52.114;5.718;2024-02-26T09:55:54;21.50;;;12.25;;
25503;SDS011;13410;52.114;5.718;2024-02-26T09:58:19;19.65;;;10.57;;
25503;SDS011;13410;52.114;5.718;2024-02-26T10:00:46;19.17;;;11.45;;
25503;SDS011;13410;52.114;5.718;2024-02-26T10:03:18;20.33;;;12.07;;
25503;SDS011;13410;52.114;5.718;2024-02-26T10:05:46;22.85;;;12.27;;
25503;SDS011;13410;52.114;5.718;2024-02-26T10:08:15;19.08;;;10.05;;
25503;SDS011;13410;52.114;5.718;2024-02-26T10:10:43;19.88;;;11.73;;
25503;SDS011;13410;52.114;5.718;2024-02-26T10:13:09;20.27;;;11.45;;
25503;SDS011;13410;52.114;5.718;2024-02-26T10:15:37;21.92;;;12.15;;
25503;SDS011;13410;52.114;5.718;2024-02-26T10:18:05;20.55;;;11.38;;
25503;SDS011;13410;52.114;5.718;2024-02-26T10:20:34;22.42;;;12.15;;
25503;SDS011;13410;52.114;5.718;2024-02-26T10:23:06;21.05;;;12.25;;
25503;SDS011;13410;52.114;5.718;2024-02-26T10:25:32;20.60;;;11.95;;
25503;SDS011;13410;52.114;5.718;2024-02-26T10:28:01;21.35;;;12.05;;
25503;SDS011;13410;52.114;5.718;2024-02-26T10:30:28;20.10;;;11.43;;
25503;SDS011;13410;52.114;5.718;2024-02-26T10:32:53;22.67;;;12.98;;
25503;SDS011;13410;52.114;5.718;2024-02-26T10:35:19;24.35;;;13.15;;
25503;SDS011;13410;52.114;5.718;2024-02-26T10:37:46;21.42;;;12.23;;
25503;SDS011;13410;52.114;5.718;2024-02-26T10:40:12;18.70;;;12.15;;
25503;SDS011;13410;52.114;5.718;2024-02-26T10:42:39;19.40;;;11.45;;
25503;SDS011;13410;52.114;5.718;2024-02-26T10:45:06;19.50;;;13.45;;
25503;SDS011;13410;52.114;5.718;2024-02-26T10:47:34;20.40;;;12.50;;
25503;SDS011;13410;52.114;5.718;2024-02-26T10:50:04;18.25;;;10.48;;
25503;SDS011;13410;52.114;5.718;2024-02-26T10:52:35;19.38;;;11.93;;
25503;SDS011;13410;52.114;5.718;2024-02-26T10:55:02;21.25;;;11.45;;
25503;SDS011;13410;52.114;5.718;2024-02-26T10:57:31;19.67;;;11.43;;
25503;SDS011;13410;52.114;5.718;2024-02-26T11:00:00;19.35;;;12.65;;
25503;SDS011;13410;52.114;5.718;2024-02-26T11:02:28;18.85;;;10.88;;
25503;SDS011;13410;52.114;5.718;2024-02-26T11:04:57;17.92;;;10.60;;
25503;SDS011;13410;52.114;5.718;2024-02-26T11:07:25;19.17;;;11.82;;
25503;SDS011;13410;52.114;5.718;2024-02-26T11:09:51;20.23;;;10.38;;
25503;SDS011;13410;52.114;5.718;2024-02-26T11:12:18;15.68;;;9.15;;
25503;SDS011;13410;52.114;5.718;2024-02-26T11:14:46;18.63;;;11.20;;
25503;SDS011;13410;52.114;5.718;2024-02-26T11:17:14;17.20;;;9.75;;
25503;SDS011;13410;52.114;5.718;2024-02-26T11:19:41;16.42;;;10.43;;
25503;SDS011;13410;52.114;5.718;2024-02-26T11:22:09;20.70;;;9.85;;
25503;SDS011;13410;52.114;5.718;2024-02-26T11:24:34;18.17;;;9.40;;
25503;SDS011;13410;52.114;5.718;2024-02-26T11:27:05;18.60;;;10.20;;
25503;SDS011;13410;52.114;5.718;2024-02-26T11:29:37;15.88;;;9.35;;
25503;SDS011;13410;52.114;5.718;2024-02-26T11:32:05;18.10;;;10.27;;
25503;SDS011;13410;52.114;5.718;2024-02-26T11:34:31;19.35;;;10.07;;
25503;SDS011;13410;52.114;5.718;2024-02-26T11:36:57;17.77;;;10.10;;
25503;SDS011;13410;52.114;5.718;2024-02-26T11:39:33;23.15;;;10.27;;
25503;SDS011;13410;52.114;5.718;2024-02-26T11:42:10;17.75;;;10.20;;
25503;SDS011;13410;52.114;5.718;2024-02-26T11:44:39;16.60;;;9.98;;
25503;SDS011;13410;52.114;5.718;2024-02-26T11:47:13;18.52;;;9.98;;
25503;SDS011;13410;52.114;5.718;2024-02-26T11:49:43;17.15;;;9.65;;
25503;SDS011;13410;52.114;5.718;2024-02-26T11:52:09;17.98;;;9.45;;
25503;SDS011;13410;52.114;5.718;2024-02-26T11:54:48;17.02;;;9.80;;
25503;SDS011;13410;52.114;5.718;2024-02-26T11:57:28;18.23;;;10.50;;
25503;SDS011;13410;52.114;5.718;2024-02-26T12:02:49;16.92;;;9.38;;
25503;SDS011;13410;52.114;5.718;2024-02-26T12:05:23;15.77;;;8.15;;
25503;SDS011;13410;52.114;5.718;2024-02-26T12:07:50;18.48;;;10.73;;
25503;SDS011;13410;52.114;5.718;2024-02-26T12:10:30;18.95;;;9.52;;
25503;SDS011;13410;52.114;5.718;2024-02-26T12:13:03;17.40;;;9.38;;
25503;SDS011;13410;52.114;5.718;2024-02-26T12:15:37;17.10;;;9.77;;
25503;SDS011;13410;52.114;5.718;2024-02-26T12:18:05;17.17;;;9.18;;
25503;SDS011;13410;52.114;5.718;2024-02-26T12:20:33;19.27;;;8.68;;
25503;SDS011;13410;52.114;5.718;2024-02-26T12:23:00;15.15;;;8.52;;
25503;SDS011;13410;52.114;5.718;2024-02-26T12:25:28;19.13;;;10.18;;
25503;SDS011;13410;52.114;5.718;2024-02-26T12:27:55;13.70;;;7.15;;
25503;SDS011;13410;52.114;5.718;2024-02-26T12:30:21;17.45;;;9.50;;
25503;SDS011;13410;52.114;5.718;2024-02-26T12:32:51;17.23;;;8.90;;
25503;SDS011;13410;52.114;5.718;2024-02-26T12:35:21;14.65;;;9.05;;
25503;SDS011;13410;52.114;5.718;2024-02-26T12:37:47;14.88;;;8.75;;
25503;SDS011;13410;52.114;5.718;2024-02-26T12:40:13;15.30;;;8.90;;
25503;SDS011;13410;52.114;5.718;2024-02-26T12:42:39;13.23;;;8.02;;
25503;SDS011;13410;52.114;5.718;2024-02-26T12:45:14;15.05;;;7.57;;
25503;SDS011;13410;52.114;5.718;2024-02-26T12:47:45;14.30;;;7.97;;
25503;SDS011;13410;52.114;5.718;2024-02-26T12:50:11;16.83;;;10.10;;
25503;SDS011;13410;52.114;5.718;2024-02-26T12:52:46;15.27;;;8.27;;
25503;SDS011;13410;52.114;5.718;2024-02-26T12:55:19;15.73;;;8.85;;
25503;SDS011;13410;52.114;5.718;2024-02-26T12:57:46;15.38;;;9.27;;
25503;SDS011;13410;52.114;5.718;2024-02-26T13:00:15;15.63;;;8.93;;
25503;SDS011;13410;52.114;5.718;2024-02-26T13:02:43;14.48;;;8.55;;
25503;SDS011;13410;52.114;5.718;2024-02-26T13:05:10;13.48;;;8.63;;
25503;SDS011;13410;52.114;5.718;2024-02-26T13:07:41;14.30;;;8.02;;
25503;SDS011;13410;52.114;5.718;2024-02-26T13:10:08;17.42;;;9.40;;
25503;SDS011;13410;52.114;5.718;2024-02-26T13:12:36;16.60;;;9.75;;
25503;SDS011;13410;52.114;5.718;2024-02-26T13:15:06;15.43;;;10.25;;
25503;SDS011;13410;52.114;5.718;2024-02-26T13:17:32;16.85;;;9.07;;
25503;SDS011;13410;52.114;5.718;2024-02-26T13:19:59;14.18;;;8.00;;
25503;SDS011;13410;52.114;5.718;2024-02-26T13:22:24;15.45;;;9.23;;
25503;SDS011;13410;52.114;5.718;2024-02-26T13:24:54;14.88;;;6.43;;
25503;SDS011;13410;52.114;5.718;2024-02-26T13:27:22;18.55;;;9.68;;
25503;SDS011;13410;52.114;5.718;2024-02-26T13:29:49;18.42;;;9.80;;
25503;SDS011;13410;52.114;5.718;2024-02-26T13:32:27;18.33;;;10.10;;
25503;SDS011;13410;52.114;5.718;2024-02-26T13:35:03;15.85;;;9.30;;
25503;SDS011;13410;52.114;5.718;2024-02-26T13:37:39;14.32;;;9.23;;
25503;SDS011;13410;52.114;5.718;2024-02-26T13:40:09;17.67;;;9.48;;
25503;SDS011;13410;52.114;5.718;2024-02-26T13:42:36;17.00;;;9.13;;
25503;SDS011;13410;52.114;5.718;2024-02-26T13:45:02;15.18;;;8.68;;
25503;SDS011;13410;52.114;5.718;2024-02-26T13:47:33;14.13;;;9.27;;
25503;SDS011;13410;52.114;5.718;2024-02-26T13:49:59;14.88;;;8.57;;
25503;SDS011;13410;52.114;5.718;2024-02-26T13:52:25;14.80;;;9.70;;
25503;SDS011;13410;52.114;5.718;2024-02-26T13:54:51;15.07;;;8.95;;
25503;SDS011;13410;52.114;5.718;2024-02-26T13:57:17;12.75;;;7.38;;
25503;SDS011;13410;52.114;5.718;2024-02-26T13:59:44;15.13;;;9.05;;
25503;SDS011;13410;52.114;5.718;2024-02-26T14:02:10;15.48;;;9.10;;
25503;SDS011;13410;52.114;5.718;2024-02-26T14:04:36;15.27;;;8.73;;
25503;SDS011;13410;52.114;5.718;2024-02-26T14:07:02;15.85;;;8.13;;
25503;SDS011;13410;52.114;5.718;2024-02-26T14:09:29;14.73;;;9.35;;
25503;SDS011;13410;52.114;5.718;2024-02-26T14:11:57;14.75;;;8.43;;
25503;SDS011;13410;52.114;5.718;2024-02-26T14:14:23;11.70;;;7.65;;
25503;SDS011;13410;52.114;5.718;2024-02-26T14:16:49;10.40;;;6.53;;
25503;SDS011;13410;52.114;5.718;2024-02-26T14:19:14;12.60;;;7.97;;
25503;SDS011;13410;52.114;5.718;2024-02-26T14:21:40;14.82;;;7.75;;
25503;SDS011;13410;52.114;5.718;2024-02-26T14:24:05;13.05;;;8.20;;
25503;SDS011;13410;52.114;5.718;2024-02-26T14:26:31;14.40;;;8.75;;